Terminal Aerodrome Forecast
Issued by NWS

Home | Current Version | Previous Version | Text Only | Print | Product List | Glossary On
Versions: 1 2 3 4 5 6 7 8 9 10 11 12 13 14 15 16 17 18
593
FTUS43 KGRB 031139
TAFMTW
TAF
KMTW 031139Z 0312/0412 32008KT 6SM -RASN BR BKN005 OVC020
      TEMPO 0314/0318 1SM -FZDZSN OVC003
     FM031800 33013G18KT 6SM -SHSN BR BKN012 OVC025
     FM032100 32014G20KT P6SM -SHSN SCT015 BKN025
     FM032300 31010KT P6SM SCT025 BKN040=

USA.gov is the U.S. government's official web portal to all federal, state and local government web resources and services.